createdAt,value
2018-05-10T00:00:37.903Z,25.49
2018-05-10T00:01:37.886Z,25.48
2018-05-10T00:02:37.873Z,25.53
2018-05-10T00:03:37.864Z,25.45
2018-05-10T00:04:37.852Z,25.48
2018-05-10T00:05:37.839Z,25.51
2018-05-10T00:06:37.824Z,25.45
2018-05-10T00:07:37.813Z,25.46
2018-05-10T00:08:37.801Z,25.49
2018-05-10T00:09:37.789Z,25.54
2018-05-10T00:10:37.776Z,25.42
2018-05-10T00:11:37.765Z,25.49
2018-05-10T00:12:37.753Z,25.51
2018-05-10T00:13:37.743Z,25.54
2018-05-10T00:14:37.728Z,25.45
2018-05-10T00:15:37.715Z,25.48
2018-05-10T00:16:37.703Z,25.54
2018-05-10T00:17:37.691Z,25.46
2018-05-10T00:18:37.677Z,25.51
2018-05-10T00:19:37.665Z,25.54
2018-05-10T00:20:37.654Z,25.46
2018-05-10T00:21:37.640Z,25.46
2018-05-10T00:22:37.629Z,25.46
2018-05-10T00:23:37.616Z,25.54
2018-05-10T00:24:37.602Z,25.48
2018-05-10T00:25:37.592Z,25.54
2018-05-10T00:26:37.580Z,25.45
2018-05-10T00:27:37.572Z,25.45
2018-05-10T00:28:37.555Z,25.51
2018-05-10T00:29:37.542Z,25.49
2018-05-10T00:30:37.536Z,25.48
2018-05-10T00:31:37.518Z,25.53
2018-05-10T00:32:37.505Z,25.54
2018-05-10T00:33:37.495Z,25.45
2018-05-10T00:34:37.481Z,25.51
2018-05-10T00:35:37.471Z,25.42
2018-05-10T00:36:37.458Z,25.49
2018-05-10T00:37:37.445Z,25.45
2018-05-10T00:38:37.432Z,25.51
2018-05-10T00:39:37.418Z,25.48
2018-05-10T00:40:37.406Z,25.48
2018-05-10T00:41:37.394Z,25.42
2018-05-10T00:42:37.384Z,25.45
2018-05-10T00:43:37.370Z,25.44
2018-05-10T00:44:37.365Z,25.45
2018-05-10T00:45:37.344Z,25.41
2018-05-10T00:46:37.338Z,25.45
2018-05-10T00:47:37.320Z,25.46
2018-05-10T00:48:37.314Z,25.44
2018-05-10T00:49:37.300Z,25.42
2018-05-10T00:50:37.287Z,25.42
2018-05-10T00:51:37.274Z,25.46
2018-05-10T00:52:37.262Z,25.39
2018-05-10T00:53:37.247Z,25.38
2018-05-10T00:54:37.236Z,25.45
2018-05-10T00:55:37.225Z,25.38
2018-05-10T00:56:37.213Z,25.44
2018-05-10T00:57:37.198Z,25.45
2018-05-10T00:58:37.187Z,25.45
2018-05-10T00:59:37.175Z,25.45
2018-05-10T01:00:37.163Z,25.48
2018-05-10T01:01:37.148Z,25.39
2018-05-10T01:02:37.137Z,25.45
2018-05-10T01:03:37.128Z,25.42
2018-05-10T01:04:37.117Z,25.39
2018-05-10T01:05:37.099Z,25.35
2018-05-10T01:06:37.089Z,25.42
2018-05-10T01:07:37.076Z,25.42
2018-05-10T01:08:37.065Z,25.45
2018-05-10T01:09:37.050Z,25.36
2018-05-10T01:10:37.043Z,25.29
2018-05-10T01:11:37.029Z,25.35
2018-05-10T01:12:37.016Z,25.31
2018-05-10T01:13:37.000Z,25.29
2018-05-10T01:14:36.990Z,25.35
2018-05-10T01:15:36.975Z,25.36
2018-05-10T01:16:36.968Z,25.27
2018-05-10T01:17:36.954Z,25.44
2018-05-10T01:18:36.944Z,25.36
2018-05-10T01:19:36.936Z,25.27
2018-05-10T01:20:36.917Z,25.35
2018-05-10T01:21:36.903Z,25.44
2018-05-10T01:22:36.897Z,25.39
2018-05-10T01:23:36.878Z,25.44
2018-05-10T01:24:36.869Z,25.36
2018-05-10T01:25:36.856Z,25.36
2018-05-10T01:26:36.842Z,25.26
2018-05-10T01:27:36.827Z,25.35
2018-05-10T01:28:36.819Z,25.39
2018-05-10T01:29:36.803Z,25.36
2018-05-10T01:30:36.798Z,25.38
2018-05-10T01:31:36.778Z,25.46
2018-05-10T01:32:36.769Z,25.29
2018-05-10T01:33:36.753Z,25.35
2018-05-10T01:34:36.744Z,25.36
2018-05-10T01:35:36.730Z,25.46
2018-05-10T01:36:36.720Z,25.42
2018-05-10T01:37:36.704Z,25.39
2018-05-10T01:38:36.697Z,25.36
2018-05-10T01:39:36.678Z,25.42
2018-05-10T01:40:36.670Z,25.39
2018-05-10T01:41:36.654Z,25.31
2018-05-10T01:42:36.650Z,25.31
2018-05-10T01:43:36.630Z,25.39
2018-05-10T01:44:36.626Z,25.31
2018-05-10T01:45:36.605Z,25.35
2018-05-10T01:46:36.597Z,25.38
2018-05-10T01:47:36.582Z,25.42
2018-05-10T01:48:36.569Z,25.41
2018-05-10T01:49:36.558Z,25.30
2018-05-10T01:50:36.545Z,25.38
2018-05-10T01:51:36.530Z,25.35
2018-05-10T01:52:36.518Z,25.31
2018-05-10T01:53:36.506Z,25.39
2018-05-10T01:54:36.497Z,25.31
2018-05-10T01:55:36.486Z,25.34
2018-05-10T01:56:36.469Z,25.39
2018-05-10T01:57:36.455Z,25.36
2018-05-10T01:58:36.444Z,25.41
2018-05-10T01:59:36.433Z,25.35
2018-05-10T02:00:36.421Z,25.35
2018-05-10T02:01:36.407Z,25.38
2018-05-10T02:02:36.394Z,25.41
2018-05-10T02:03:36.383Z,25.34
2018-05-10T02:04:36.371Z,25.41
2018-05-10T02:05:36.358Z,25.38
2018-05-10T02:06:36.344Z,25.34
2018-05-10T02:07:36.333Z,25.29
2018-05-10T02:08:36.323Z,25.34
2018-05-10T02:09:36.312Z,25.34
2018-05-10T02:10:36.295Z,25.35
2018-05-10T02:11:36.282Z,25.36
2018-05-10T02:12:36.269Z,25.29
2018-05-10T02:13:36.260Z,25.30
2018-05-10T02:14:36.247Z,25.31
2018-05-10T02:15:36.236Z,25.34
2018-05-10T02:16:36.226Z,25.35
2018-05-10T02:17:36.214Z,25.30
2018-05-10T02:18:36.197Z,25.35
2018-05-10T02:19:36.186Z,25.23
2018-05-10T02:20:36.170Z,25.35
2018-05-10T02:21:36.158Z,25.34
2018-05-10T02:22:36.148Z,25.24
2018-05-10T02:23:36.133Z,25.23
2018-05-10T02:24:36.124Z,25.22
2018-05-10T02:25:36.106Z,25.20
2018-05-10T02:26:36.101Z,25.23
2018-05-10T02:27:36.087Z,25.24
2018-05-10T02:28:36.072Z,25.20
2018-05-10T02:29:36.100Z,25.20
2018-05-10T02:30:36.047Z,25.22
2018-05-10T02:31:36.039Z,25.22
2018-05-10T02:32:36.022Z,25.23
2018-05-10T02:33:36.011Z,25.22
2018-05-10T02:34:35.996Z,25.24
2018-05-10T02:35:35.987Z,25.19
2018-05-10T02:36:35.973Z,25.26
2018-05-10T02:37:35.959Z,25.26
2018-05-10T02:38:35.947Z,25.24
2018-05-10T02:39:35.941Z,25.27
2018-05-10T02:40:35.923Z,25.23
2018-05-10T02:41:35.908Z,25.31
2018-05-10T02:42:35.900Z,25.24
2018-05-10T02:43:35.883Z,25.16
2018-05-10T02:44:35.876Z,25.20
2018-05-10T02:45:35.860Z,25.23
2018-05-10T02:46:35.849Z,25.24
2018-05-10T02:47:35.836Z,25.22
2018-05-10T02:48:35.831Z,25.30
2018-05-10T02:49:35.811Z,25.27
2018-05-10T02:50:35.797Z,25.26
2018-05-10T02:51:35.786Z,25.24
2018-05-10T02:52:35.778Z,25.29
2018-05-10T02:53:35.761Z,25.20
2018-05-10T02:54:35.756Z,25.27
2018-05-10T02:55:35.736Z,25.27
2018-05-10T02:56:35.724Z,25.29
2018-05-10T02:57:35.712Z,25.26
2018-05-10T02:58:35.696Z,25.23
2018-05-10T02:59:35.700Z,25.20
2018-05-10T03:00:35.676Z,25.22
2018-05-10T03:01:35.660Z,25.20
2018-05-10T03:02:35.647Z,25.24
2018-05-10T03:03:35.639Z,25.22
2018-05-10T03:04:35.623Z,25.23
2018-05-10T03:05:35.615Z,25.24
2018-05-10T03:06:35.602Z,25.23
2018-05-10T03:07:35.586Z,25.27
2018-05-10T03:08:35.574Z,25.20
2018-05-10T03:09:35.560Z,25.23
2018-05-10T03:10:35.552Z,25.23
2018-05-10T03:11:35.535Z,25.26
2018-05-10T03:12:35.523Z,25.16
2018-05-10T03:13:35.510Z,25.22
2018-05-10T03:14:35.499Z,25.23
2018-05-10T03:15:35.485Z,25.19
2018-05-10T03:16:35.475Z,25.19
2018-05-10T03:17:35.460Z,25.23
2018-05-10T03:18:35.447Z,25.19
2018-05-10T03:19:35.436Z,25.24
2018-05-10T03:20:35.426Z,25.23
2018-05-10T03:21:35.420Z,25.19
2018-05-10T03:22:35.399Z,25.20
2018-05-10T03:23:35.386Z,25.23
2018-05-10T03:24:35.375Z,25.22
2018-05-10T03:25:35.360Z,25.20
2018-05-10T03:26:35.348Z,25.23
2018-05-10T03:27:35.336Z,25.20
2018-05-10T03:28:35.325Z,25.27
2018-05-10T03:29:35.312Z,25.20
2018-05-10T03:30:35.307Z,25.22
2018-05-10T03:31:35.284Z,25.24
2018-05-10T03:32:35.274Z,25.22
2018-05-10T03:33:35.260Z,25.22
2018-05-10T03:34:35.248Z,25.23
2018-05-10T03:35:35.235Z,25.20
2018-05-10T03:36:35.225Z,25.20
2018-05-10T03:37:35.212Z,25.19
2018-05-10T03:38:35.197Z,25.11
2018-05-10T03:39:35.190Z,25.16
2018-05-10T03:40:35.254Z,25.17
2018-05-10T03:41:35.159Z,25.19
2018-05-10T03:42:35.154Z,25.12
2018-05-10T03:43:35.137Z,25.16
2018-05-10T03:44:35.125Z,25.09
2018-05-10T03:45:35.109Z,25.09
2018-05-10T03:46:35.099Z,25.12
2018-05-10T03:47:35.085Z,25.12
2018-05-10T03:50:13.774Z,25.12
2018-05-10T03:51:06.630Z,25.12
2018-05-10T03:53:06.629Z,25.11
2018-05-10T03:53:59.476Z,25.17
2018-05-10T03:55:52.407Z,25.16
2018-05-10T03:56:52.391Z,25.09
2018-05-10T03:58:45.269Z,25.14
2018-05-10T03:59:45.246Z,25.16
2018-05-10T04:01:38.222Z,25.12
2018-05-10T04:02:38.202Z,25.16
2018-05-10T04:04:31.093Z,25.14
2018-05-10T04:05:31.056Z,25.19
2018-05-10T04:07:23.923Z,25.12
2018-05-10T04:08:23.907Z,25.17
2018-05-10T04:10:16.876Z,25.20
2018-05-10T04:11:16.852Z,25.11
2018-05-10T04:13:09.721Z,25.11
2018-05-10T04:14:09.707Z,25.07
2018-05-10T04:16:02.585Z,25.12
2018-05-10T04:17:02.566Z,25.09
2018-05-10T04:18:55.435Z,25.07
2018-05-10T04:19:55.417Z,25.07
2018-05-10T04:21:48.391Z,25.12
2018-05-10T04:22:48.366Z,25.07
2018-05-10T04:24:41.250Z,25.14
2018-05-10T04:25:41.223Z,25.09
2018-05-10T04:27:34.095Z,25.04
2018-05-10T04:28:34.075Z,25.04
2018-05-10T04:30:26.951Z,25.09
2018-05-10T04:31:26.927Z,25.09
2018-05-10T04:33:19.799Z,25.09
2018-05-10T04:34:19.785Z,25.09
2018-05-10T04:36:12.663Z,25.04
2018-05-10T04:37:12.637Z,24.99
2018-05-10T04:39:05.504Z,25.05
2018-05-10T04:40:05.488Z,25.01
2018-05-10T04:41:58.371Z,25.04
2018-05-10T04:42:58.342Z,24.99
2018-05-10T04:44:51.210Z,25.04
2018-05-10T04:45:51.195Z,24.99
2018-05-10T04:47:44.073Z,25.02
2018-05-10T04:48:44.047Z,25.02
2018-05-10T04:50:36.917Z,25.04
2018-05-10T04:51:36.899Z,25.01
2018-05-10T04:53:29.776Z,25.05
2018-05-10T04:54:29.773Z,24.98
2018-05-10T04:56:22.623Z,24.99
2018-05-10T04:57:22.607Z,25.05
2018-05-10T04:59:15.484Z,25.02
2018-05-10T05:00:15.460Z,25.01
2018-05-10T05:02:08.335Z,25.08
2018-05-10T05:03:08.312Z,25.04
2018-05-10T05:05:01.184Z,25.04
2018-05-10T05:06:01.168Z,25.01
2018-05-10T05:07:54.051Z,25.02
2018-05-10T05:08:54.028Z,25.02
2018-05-10T05:09:54.007Z,24.99
2018-05-10T05:10:53.993Z,24.97
2018-05-10T05:11:53.984Z,24.97
2018-05-10T05:12:53.972Z,24.92
2018-05-10T05:13:53.959Z,25.04
2018-05-10T05:14:53.974Z,24.99
2018-05-10T05:15:53.931Z,24.94
2018-05-10T05:16:53.918Z,25.02
2018-05-10T05:17:53.904Z,24.93
2018-05-10T05:18:53.891Z,24.92
2018-05-10T05:19:53.878Z,25.04
2018-05-10T05:20:53.865Z,24.99
2018-05-10T05:21:53.857Z,24.99
2018-05-10T05:22:53.841Z,24.99
2018-05-10T05:23:53.829Z,24.98
2018-05-10T05:24:53.820Z,25.01
2018-05-10T05:25:53.803Z,25.02
2018-05-10T05:26:53.868Z,24.99
2018-05-10T05:27:53.778Z,24.99
2018-05-10T05:28:53.764Z,24.97
2018-05-10T05:29:53.752Z,24.92
2018-05-10T05:30:53.739Z,24.99
2018-05-10T05:31:53.728Z,24.92
2018-05-10T05:32:53.714Z,24.98
2018-05-10T05:33:53.708Z,24.94
2018-05-10T05:34:53.689Z,24.98
2018-05-10T05:35:53.674Z,24.99
2018-05-10T05:36:53.665Z,24.97
2018-05-10T05:37:53.650Z,24.92
2018-05-10T05:38:53.642Z,24.98
2018-05-10T05:39:53.625Z,24.99
2018-05-10T05:40:53.618Z,25.02
2018-05-10T05:41:53.601Z,25.01
2018-05-10T05:42:53.587Z,24.92
2018-05-10T05:43:53.576Z,24.99
2018-05-10T05:44:53.560Z,24.94
2018-05-10T05:45:53.548Z,24.97
2018-05-10T05:46:53.534Z,25.01
2018-05-10T05:49:25.233Z,24.98
2018-05-10T05:50:25.184Z,24.89
2018-05-10T05:52:18.063Z,24.94
2018-05-10T05:53:18.035Z,24.89
2018-05-10T05:55:10.914Z,24.93
2018-05-10T05:56:10.891Z,24.94
2018-05-10T05:58:03.766Z,24.94
2018-05-10T05:59:03.746Z,24.90
2018-05-10T06:00:56.701Z,24.92
2018-05-10T06:01:56.600Z,24.87
2018-05-10T06:03:49.468Z,24.89
2018-05-10T06:04:49.455Z,24.90
2018-05-10T06:06:42.329Z,24.87
2018-05-10T06:07:42.305Z,24.90
2018-05-10T06:09:35.173Z,24.87
2018-05-10T06:10:35.154Z,24.90
2018-05-10T06:12:28.019Z,24.94
2018-05-10T06:13:27.998Z,24.84
2018-05-10T06:14:28.069Z,24.90
2018-05-10T06:15:27.983Z,24.84
2018-05-10T06:16:27.956Z,24.89
2018-05-10T06:17:27.943Z,24.86
2018-05-10T06:18:27.942Z,24.86
2018-05-10T06:19:27.920Z,24.83
2018-05-10T06:20:28.157Z,24.89
2018-05-10T06:21:27.899Z,24.84
2018-05-10T06:22:27.880Z,24.86
2018-05-10T06:23:27.870Z,24.89
2018-05-10T06:24:27.854Z,24.82
2018-05-10T06:25:27.843Z,24.83
2018-05-10T06:26:27.827Z,24.82
2018-05-10T06:27:27.813Z,24.90
2018-05-10T06:28:27.803Z,24.82
2018-05-10T06:29:27.792Z,24.84
2018-05-10T06:30:27.781Z,24.75
2018-05-10T06:31:27.767Z,24.87
2018-05-10T06:32:27.754Z,24.89
2018-05-10T06:33:27.743Z,24.89
2018-05-10T06:34:27.729Z,24.89
2018-05-10T06:35:27.714Z,24.86
2018-05-10T06:36:27.702Z,24.94
2018-05-10T06:37:27.688Z,24.92
2018-05-10T06:38:27.678Z,24.84
2018-05-10T06:39:27.670Z,24.83
2018-05-10T06:40:27.650Z,24.82
2018-05-10T06:41:27.639Z,24.92
2018-05-10T06:42:27.625Z,24.89
2018-05-10T06:43:27.611Z,24.86
2018-05-10T06:44:27.599Z,24.79
2018-05-10T06:45:27.587Z,24.79
2018-05-10T06:46:27.573Z,24.92
2018-05-10T06:47:27.563Z,24.86
2018-05-10T06:48:27.554Z,24.84
2018-05-10T06:49:27.537Z,24.87
2018-05-10T06:50:27.601Z,24.84
2018-05-10T06:51:27.515Z,24.86
2018-05-10T06:52:27.499Z,24.92
2018-05-10T06:53:27.487Z,24.86
2018-05-10T06:54:27.476Z,24.86
2018-05-10T06:55:27.462Z,24.86
2018-05-10T06:56:27.457Z,24.87
2018-05-10T06:57:27.435Z,24.86
2018-05-10T06:58:27.424Z,24.79
2018-05-10T06:59:27.408Z,24.87
2018-05-10T07:00:27.403Z,24.79
2018-05-10T07:01:27.382Z,24.84
2018-05-10T07:02:27.371Z,24.89
2018-05-10T07:03:27.448Z,24.89
2018-05-10T07:04:27.346Z,24.90
2018-05-10T07:05:27.334Z,24.89
2018-05-10T07:06:27.329Z,24.79
2018-05-10T07:07:27.306Z,24.94
2018-05-10T07:08:27.293Z,24.89
2018-05-10T07:09:27.363Z,24.84
2018-05-10T07:10:27.267Z,24.80
2018-05-10T07:11:27.255Z,24.87
2018-05-10T07:12:27.245Z,24.74
2018-05-10T07:13:27.229Z,24.86
2018-05-10T07:14:27.217Z,24.86
2018-05-10T07:15:27.204Z,24.83
2018-05-10T07:16:27.191Z,24.89
2018-05-10T07:17:27.178Z,24.86
2018-05-10T07:18:27.165Z,24.83
2018-05-10T07:19:27.152Z,24.93
2018-05-10T07:20:27.139Z,24.84
2018-05-10T07:21:27.127Z,24.83
2018-05-10T07:22:27.114Z,24.93
2018-05-10T07:23:27.178Z,24.94
2018-05-10T07:24:27.090Z,24.92
2018-05-10T07:25:27.135Z,24.84
2018-05-10T07:26:27.065Z,24.89
2018-05-10T07:27:27.053Z,24.86
2018-05-10T07:28:27.039Z,24.86
2018-05-10T07:29:27.028Z,24.93
2018-05-10T07:30:27.013Z,24.92
2018-05-10T07:31:27.002Z,24.83
2018-05-10T07:32:26.989Z,24.89
2018-05-10T07:33:26.983Z,24.89
2018-05-10T07:34:26.967Z,24.89
2018-05-10T07:35:26.948Z,24.92
2018-05-10T07:36:26.938Z,24.89
2018-05-10T07:37:26.921Z,24.83
2018-05-10T07:38:26.909Z,24.86
2018-05-10T07:39:26.901Z,24.92
2018-05-10T07:40:26.882Z,24.84
2018-05-10T07:41:26.869Z,24.90
2018-05-10T07:42:26.859Z,24.82
2018-05-10T07:43:26.849Z,24.83
2018-05-10T07:44:26.835Z,24.79
2018-05-10T07:45:26.819Z,24.86
2018-05-10T07:46:26.807Z,24.93
2018-05-10T07:47:26.860Z,24.86
2018-05-10T07:48:26.784Z,24.82
2018-05-10T07:49:26.769Z,24.84
2018-05-10T07:50:26.756Z,24.89
2018-05-10T07:51:26.743Z,24.84
2018-05-10T07:52:26.734Z,24.82
2018-05-10T07:53:26.718Z,24.90
2018-05-10T07:54:26.708Z,24.87
2018-05-10T07:55:26.690Z,24.86
2018-05-10T07:56:26.677Z,24.82
2018-05-10T07:57:26.668Z,24.90
2018-05-10T07:58:26.651Z,24.82
2018-05-10T07:59:26.642Z,24.82
2018-05-10T08:00:26.627Z,24.92
2018-05-10T08:01:26.616Z,24.82
2018-05-10T08:02:26.601Z,24.86
2018-05-10T08:03:26.591Z,24.79
2018-05-10T08:04:26.575Z,24.83
2018-05-10T08:05:26.564Z,24.84
2018-05-10T08:06:26.554Z,24.86
2018-05-10T08:07:26.543Z,24.75
2018-05-10T08:08:26.525Z,24.86
2018-05-10T08:09:26.514Z,24.84
2018-05-10T08:10:26.501Z,24.87
2018-05-10T08:11:26.488Z,24.79
2018-05-10T08:12:26.471Z,24.86
2018-05-10T08:13:26.464Z,24.79
2018-05-10T08:14:26.448Z,24.87
2018-05-10T08:15:26.435Z,24.84
2018-05-10T08:16:26.428Z,24.79
2018-05-10T08:17:26.409Z,24.82
2018-05-10T08:18:26.396Z,24.86
2018-05-10T08:19:26.385Z,24.80
2018-05-10T08:20:26.371Z,24.82
2018-05-10T08:21:26.360Z,24.84
2018-05-10T08:22:26.344Z,24.79
2018-05-10T08:23:26.334Z,24.80
2018-05-10T08:24:26.320Z,24.75
2018-05-10T08:25:26.306Z,24.70
2018-05-10T08:26:26.296Z,24.75
2018-05-10T08:27:26.281Z,24.74
2018-05-10T08:28:26.267Z,24.82
2018-05-10T08:29:26.255Z,24.75
2018-05-10T08:30:26.242Z,24.87
2018-05-10T08:33:04.937Z,24.83
2018-05-10T08:33:57.781Z,24.80
2018-05-10T08:35:50.640Z,24.89
2018-05-10T08:36:50.677Z,24.77
2018-05-10T08:38:50.629Z,24.77
2018-05-10T08:39:43.468Z,24.82
2018-05-10T08:41:43.453Z,24.75
2018-05-10T08:42:36.309Z,24.84
2018-05-10T08:44:36.307Z,24.84
2018-05-10T08:45:29.159Z,24.79
2018-05-10T08:47:22.023Z,24.77
2018-05-10T08:48:22.001Z,24.83
2018-05-10T08:50:21.996Z,24.86
2018-05-10T08:51:14.850Z,24.89
2018-05-10T08:53:14.845Z,24.87
2018-05-10T08:54:07.695Z,24.87
2018-05-10T08:56:07.689Z,24.75
2018-05-10T08:57:00.541Z,24.79
2018-05-10T08:58:53.404Z,24.83
2018-05-10T08:59:53.382Z,24.74
2018-05-10T09:00:53.363Z,24.71
2018-05-10T09:01:53.351Z,24.82
2018-05-10T09:02:53.345Z,24.75
2018-05-10T09:03:53.325Z,24.68
2018-05-10T09:04:53.311Z,24.75
2018-05-10T09:05:53.304Z,24.77
2018-05-10T09:06:53.286Z,24.71
2018-05-10T09:07:53.275Z,24.77
2018-05-10T09:08:53.263Z,24.77
2018-05-10T09:09:53.248Z,24.71
2018-05-10T09:10:53.260Z,24.74
2018-05-10T09:11:53.221Z,24.68
2018-05-10T09:12:53.210Z,24.80
2018-05-10T09:13:53.194Z,24.75
2018-05-10T09:14:53.183Z,24.75
2018-05-10T09:15:53.173Z,24.71
2018-05-10T09:16:53.157Z,24.68
2018-05-10T09:17:53.142Z,24.74
2018-05-10T09:18:53.130Z,24.74
2018-05-10T09:19:53.118Z,24.74
2018-05-10T09:20:53.107Z,24.70
2018-05-10T09:21:53.091Z,24.67
2018-05-10T09:22:53.080Z,24.77
2018-05-10T09:23:53.069Z,24.68
2018-05-10T09:24:53.060Z,24.75
2018-05-10T09:25:53.046Z,24.60
2018-05-10T09:26:53.034Z,24.68
2018-05-10T09:27:53.015Z,24.59
2018-05-10T09:28:53.003Z,24.70
2018-05-10T09:29:52.991Z,24.74
2018-05-10T09:30:52.975Z,24.74
2018-05-10T09:31:52.965Z,24.71
2018-05-10T09:32:52.950Z,24.74
2018-05-10T09:33:52.941Z,24.70
2018-05-10T09:34:52.925Z,24.77
2018-05-10T09:35:52.912Z,24.70
2018-05-10T09:36:52.902Z,24.74
2018-05-10T09:37:52.884Z,24.74
2018-05-10T09:38:52.874Z,24.68
2018-05-10T09:39:52.860Z,24.61
2018-05-10T09:40:52.847Z,24.68
2018-05-10T09:41:52.837Z,24.63
2018-05-10T09:42:52.824Z,24.74
2018-05-10T09:43:52.807Z,24.71
2018-05-10T09:44:52.807Z,24.67
2018-05-10T09:45:52.781Z,24.70
2018-05-10T09:46:52.768Z,24.59
2018-05-10T09:47:52.757Z,24.70
2018-05-10T09:48:52.743Z,24.74
2018-05-10T09:49:52.731Z,24.71
2018-05-10T09:50:52.720Z,24.56
2018-05-10T09:51:52.705Z,24.70
2018-05-10T09:52:52.694Z,24.60
2018-05-10T09:53:52.679Z,24.75
2018-05-10T09:54:52.667Z,24.67
2018-05-10T09:55:52.656Z,24.59
2018-05-10T09:56:52.639Z,24.61
2018-05-10T09:57:52.625Z,24.63
2018-05-10T09:58:52.615Z,24.64
2018-05-10T09:59:52.638Z,24.56
2018-05-10T10:00:52.590Z,24.53
2018-05-10T10:01:52.576Z,24.60
2018-05-10T10:02:52.562Z,24.56
2018-05-10T10:03:52.551Z,24.60
2018-05-10T10:04:52.538Z,24.63
2018-05-10T10:05:52.527Z,24.59
2018-05-10T10:06:52.513Z,24.63
2018-05-10T10:07:52.500Z,24.64
2018-05-10T10:08:52.484Z,24.59
2018-05-10T10:09:52.482Z,24.67
2018-05-10T10:10:52.460Z,24.60
2018-05-10T10:11:52.445Z,24.60
2018-05-10T10:12:52.432Z,24.56
2018-05-10T10:13:52.422Z,24.53
2018-05-10T10:14:52.405Z,24.64
2018-05-10T10:15:52.393Z,24.60
2018-05-10T10:16:52.381Z,24.64
2018-05-10T10:17:52.369Z,24.64
2018-05-10T10:18:52.360Z,24.59
2018-05-10T10:19:52.345Z,24.63
2018-05-10T10:20:52.329Z,24.56
2018-05-10T10:21:52.316Z,24.60
2018-05-10T10:22:52.305Z,24.48
2018-05-10T10:23:52.289Z,24.59
2018-05-10T10:24:52.277Z,24.55
2018-05-10T10:25:52.263Z,24.55
2018-05-10T10:26:52.252Z,24.59
2018-05-10T10:27:52.240Z,24.46
2018-05-10T10:28:52.231Z,24.48
2018-05-10T10:29:52.213Z,24.45
2018-05-10T10:30:52.202Z,24.59
2018-05-10T10:31:52.188Z,24.45
2018-05-10T10:32:52.174Z,24.45
2018-05-10T10:33:52.161Z,24.46
2018-05-10T10:34:52.147Z,24.49
2018-05-10T10:35:52.136Z,24.56
2018-05-10T10:36:52.120Z,24.49
2018-05-10T10:37:52.110Z,24.48
2018-05-10T10:38:52.094Z,24.49
2018-05-10T10:39:52.084Z,24.44
2018-05-10T10:40:52.071Z,24.52
2018-05-10T10:41:52.056Z,24.48
2018-05-10T10:42:52.045Z,24.44
2018-05-10T10:43:52.032Z,24.45
2018-05-10T10:44:52.017Z,24.48
2018-05-10T10:45:52.006Z,24.39
2018-05-10T10:46:51.993Z,24.42
2018-05-10T10:47:51.980Z,24.46
2018-05-10T10:48:51.965Z,24.48
2018-05-10T10:49:51.955Z,24.41
2018-05-10T10:50:51.939Z,24.49
2018-05-10T10:51:51.927Z,24.39
2018-05-10T10:52:51.940Z,24.46
2018-05-10T10:53:51.980Z,24.44
2018-05-10T10:54:51.886Z,24.48
2018-05-10T10:55:51.878Z,24.39
2018-05-10T10:56:51.863Z,24.41
2018-05-10T10:57:51.852Z,24.46
2018-05-10T10:58:51.841Z,24.39
2018-05-10T10:59:51.870Z,24.42
2018-05-10T11:00:51.811Z,24.45
2018-05-10T11:01:51.840Z,24.45
2018-05-10T11:02:51.790Z,24.41
2018-05-10T11:03:51.769Z,24.42
2018-05-10T11:04:51.763Z,24.44
2018-05-10T11:05:51.745Z,24.37
2018-05-10T11:06:51.732Z,24.37
2018-05-10T11:07:51.718Z,24.45
2018-05-10T11:08:51.728Z,24.44
2018-05-10T11:09:51.692Z,24.34
2018-05-10T11:10:51.680Z,24.42
2018-05-10T11:11:51.665Z,24.41
2018-05-10T11:12:51.654Z,24.33
2018-05-10T11:13:51.639Z,24.36
2018-05-10T11:14:51.626Z,24.36
2018-05-10T11:15:51.614Z,24.34
2018-05-10T11:16:51.600Z,24.36
2018-05-10T11:17:51.587Z,24.39
2018-05-10T11:18:51.579Z,24.37
2018-05-10T11:19:51.561Z,24.44
2018-05-10T11:20:51.600Z,24.36
2018-05-10T11:21:51.535Z,24.37
2018-05-10T11:22:51.525Z,24.37
2018-05-10T11:23:51.510Z,24.36
2018-05-10T11:24:51.496Z,24.37
2018-05-10T11:25:51.482Z,24.37
2018-05-10T11:26:51.471Z,24.34
2018-05-10T11:27:51.458Z,24.34
2018-05-10T11:28:51.444Z,24.34
2018-05-10T11:29:51.428Z,24.34
2018-05-10T11:30:51.420Z,24.33
2018-05-10T11:31:51.406Z,24.31
2018-05-10T11:32:51.402Z,24.34
2018-05-10T11:33:51.376Z,24.33
2018-05-10T11:34:51.368Z,24.33
2018-05-10T11:35:51.351Z,24.33
2018-05-10T11:36:51.338Z,24.33
2018-05-10T11:37:51.325Z,24.30
2018-05-10T11:38:51.315Z,24.33
2018-05-10T11:41:22.878Z,24.30
2018-05-10T11:42:22.855Z,24.34
2018-05-10T11:44:22.903Z,24.36
2018-05-10T11:45:15.695Z,24.33
2018-05-10T11:47:15.687Z,24.30
2018-05-10T11:48:08.535Z,24.31
2018-05-10T11:50:08.544Z,24.29
2018-05-10T11:51:01.383Z,24.29
2018-05-10T11:52:54.243Z,24.36
2018-05-10T11:53:54.226Z,24.34
2018-05-10T11:55:54.232Z,24.34
2018-05-10T11:56:47.071Z,24.36
2018-05-10T11:58:47.067Z,24.31
2018-05-10T11:59:39.912Z,24.29
2018-05-10T12:01:39.900Z,24.31
2018-05-10T12:02:32.808Z,24.33
2018-05-10T12:04:32.734Z,24.21
2018-05-10T12:05:25.601Z,24.31
2018-05-10T12:07:19.040Z,24.34
2018-05-10T12:08:18.438Z,24.26
2018-05-10T12:10:18.903Z,24.34
2018-05-10T12:11:11.282Z,24.33
2018-05-10T12:13:11.291Z,24.33
2018-05-10T12:14:04.128Z,24.30
2018-05-10T12:15:04.114Z,24.24
2018-05-10T12:16:04.105Z,24.18
2018-05-10T12:17:04.090Z,24.16
2018-05-10T12:18:04.078Z,24.21
2018-05-10T12:19:04.064Z,24.11
2018-05-10T12:20:04.051Z,23.97
2018-05-10T12:21:04.037Z,23.81
2018-05-10T12:22:04.024Z,23.79
2018-05-10T12:23:04.014Z,23.87
2018-05-10T12:24:03.998Z,23.79
2018-05-10T12:25:03.984Z,23.86
2018-05-10T12:26:03.970Z,23.84
2018-05-10T12:27:03.958Z,23.86
2018-05-10T12:28:03.942Z,23.90
2018-05-10T12:30:42.705Z,23.87
2018-05-10T12:31:35.562Z,23.81
2018-05-10T12:33:35.570Z,23.84
2018-05-10T12:34:28.393Z,23.86
2018-05-10T12:36:21.257Z,23.84
2018-05-10T12:37:21.238Z,23.82
2018-05-10T12:39:21.233Z,23.92
2018-05-10T12:40:14.078Z,23.82
2018-05-10T12:42:14.065Z,23.96
2018-05-10T12:43:06.918Z,23.94
2018-05-10T12:45:06.960Z,23.92
2018-05-10T12:45:59.756Z,23.79
2018-05-10T12:47:52.680Z,23.93
2018-05-10T12:48:52.664Z,23.82
2018-05-10T12:50:52.686Z,23.92
2018-05-10T12:51:45.517Z,23.87
2018-05-10T12:53:45.615Z,23.93
2018-05-10T12:54:38.449Z,23.81
2018-05-10T12:56:38.480Z,23.93
2018-05-10T12:57:31.289Z,23.84
2018-05-10T12:59:24.202Z,23.90
2018-05-10T13:00:24.184Z,23.84
2018-05-10T13:02:24.183Z,23.90
2018-05-10T13:03:17.023Z,23.81
2018-05-10T13:05:17.027Z,23.79
2018-05-10T13:06:09.861Z,23.71
2018-05-10T13:08:09.856Z,23.57
2018-05-10T13:09:02.700Z,23.57
2018-05-10T13:11:03.290Z,23.62
2018-05-10T13:13:34.415Z,23.53
2018-05-10T13:14:27.218Z,23.57
2018-05-10T13:16:20.128Z,23.57
2018-05-10T13:17:20.096Z,23.49
2018-05-10T13:19:20.324Z,23.53
2018-05-10T13:20:13.064Z,23.63
2018-05-10T13:23:37.747Z,23.62
2018-05-10T13:24:38.758Z,23.68
2018-05-10T13:26:37.990Z,23.77
2018-05-10T13:27:30.946Z,23.74
2018-05-10T13:28:31.167Z,23.79
2018-05-10T13:29:30.486Z,23.86
2018-05-10T13:30:30.569Z,23.87
2018-05-10T13:31:30.443Z,23.81
2018-05-10T13:32:30.432Z,23.89
2018-05-10T13:33:30.417Z,23.94
2018-05-10T13:34:30.405Z,23.87
2018-05-10T13:35:30.387Z,23.82
2018-05-10T13:36:30.375Z,23.74
2018-05-10T13:37:30.360Z,23.77
2018-05-10T13:38:30.461Z,23.81
2018-05-10T13:39:30.388Z,23.74
2018-05-10T13:40:30.349Z,23.82
2018-05-10T13:41:30.573Z,23.86
2018-05-10T13:42:30.478Z,23.87
2018-05-10T13:43:30.418Z,23.93
2018-05-10T13:44:30.272Z,23.82
2018-05-10T13:45:30.313Z,23.89
2018-05-10T13:46:30.239Z,23.84
2018-05-10T13:47:30.655Z,23.87
2018-05-10T13:48:30.210Z,23.94
2018-05-10T13:49:30.399Z,23.86
2018-05-10T13:50:30.204Z,23.84
2018-05-10T13:51:30.314Z,23.93
2018-05-10T13:52:30.158Z,23.97
2018-05-10T13:55:08.931Z,23.94
2018-05-10T13:56:01.726Z,23.99
2018-05-10T13:57:01.704Z,24.08
2018-05-10T13:58:01.691Z,24.04
2018-05-10T13:59:01.737Z,23.97
2018-05-10T14:00:01.664Z,24.06
2018-05-10T14:01:01.652Z,24.04
2018-05-10T14:02:01.638Z,24.11
2018-05-10T14:03:01.627Z,24.14
2018-05-10T14:04:01.608Z,24.05
2018-05-10T14:05:01.596Z,24.05
2018-05-10T14:06:01.581Z,24.05
2018-05-10T14:07:01.570Z,24.09
2018-05-10T14:08:01.555Z,24.06
2018-05-10T14:09:01.541Z,24.09